Time;durP1;ratioP1;P1;durP2;ratioP2;P2;SDS_P1;SDS_P2;PMS_P1;PMS_P2;Temp;Humidity;BMP_temperature;BMP_pressure;BME280_temperature;BME280_humidity;BME280_pressure;Samples;Min_cycle;Max_cycle;Signal;HPM_P1;HPM_P2
2022/12/04 00:01:48;;;;;;;116.87;49.00;;;;;;;;;;5064387;28;20181;-76
2022/12/04 00:04:14;;;;;;;124.67;48.27;;;;;;;;;;5062986;28;20490;-77
2022/12/04 00:06:40;;;;;;;114.03;47.17;;;;;;;;;;5062859;28;20182;-76
2022/12/04 00:09:07;;;;;;;123.63;47.90;;;;;;;;;;5056490;28;20213;-76
2022/12/04 00:11:33;;;;;;;110.67;45.90;;;;;;;;;;5067553;28;20267;-76
2022/12/04 00:14:00;;;;;;;102.67;45.80;;;;;;;;;;5057929;28;20181;-76
2022/12/04 00:16:28;;;;;;;119.47;47.33;;;;;;;;;;5066425;28;20646;-77
2022/12/04 00:18:54;;;;;;;101.17;43.10;;;;;;;;;;5067993;28;20209;-76
2022/12/04 00:21:20;;;;;;;110.27;45.57;;;;;;;;;;5057663;28;20176;-76
2022/12/04 00:23:47;;;;;;;110.70;44.20;;;;;;;;;;5061829;28;20272;-76
2022/12/04 00:26:14;;;;;;;114.33;47.47;;;;;;;;;;5063761;28;20185;-77
2022/12/04 00:28:41;;;;;;;137.00;49.93;;;;;;;;;;5059918;28;20212;-77
2022/12/04 00:31:07;;;;;;;123.10;48.87;;;;;;;;;;5056529;28;20642;-77
2022/12/04 00:33:34;;;;;;;130.10;49.40;;;;;;;;;;5063159;28;20225;-76
2022/12/04 00:36:02;;;;;;;109.17;46.63;;;;;;;;;;5065966;28;20189;-76
2022/12/04 00:38:28;;;;;;;111.63;46.43;;;;;;;;;;5056037;28;20197;-76
2022/12/04 00:40:54;;;;;;;121.73;48.57;;;;;;;;;;5070892;28;20227;-76
2022/12/04 00:43:20;;;;;;;110.53;46.83;;;;;;;;;;5075466;28;20963;-76
2022/12/04 00:45:47;;;;;;;113.47;45.37;;;;;;;;;;5070717;28;20184;-77
2022/12/04 00:48:13;;;;;;;112.47;46.80;;;;;;;;;;5063907;28;20216;-76
2022/12/04 00:50:39;;;;;;;130.10;50.67;;;;;;;;;;5057048;28;20269;-76
2022/12/04 00:53:05;;;;;;;117.80;48.70;;;;;;;;;;5071759;28;20630;-75
2022/12/04 00:55:31;;;;;;;122.50;49.90;;;;;;;;;;5064339;28;20182;-76
2022/12/04 00:57:57;;;;;;;121.30;50.17;;;;;;;;;;5074428;28;20200;-75
2022/12/04 01:00:23;;;;;;;110.57;46.80;;;;;;;;;;5070409;28;20534;-75
2022/12/04 01:02:49;;;;;;;106.33;46.10;;;;;;;;;;5065239;28;20185;-77
2022/12/04 01:05:15;;;;;;;112.33;46.90;;;;;;;;;;5072556;28;20227;-76
2022/12/04 01:07:41;;;;;;;115.90;46.93;;;;;;;;;;5062955;28;20324;-76
2022/12/04 01:10:08;;;;;;;118.17;46.70;;;;;;;;;;5056856;28;20635;-76
2022/12/04 01:12:35;;;;;;;117.23;47.60;;;;;;;;;;5057332;28;20186;-77
2022/12/04 01:15:01;;;;;;;121.17;47.77;;;;;;;;;;5066988;28;20235;-76
2022/12/04 01:17:27;;;;;;;122.00;48.83;;;;;;;;;;5059887;28;20235;-77
2022/12/04 01:19:53;;;;;;;117.13;46.33;;;;;;;;;;5070060;28;20545;-77
2022/12/04 01:22:19;;;;;;;114.40;46.87;;;;;;;;;;5067971;28;20182;-77
2022/12/04 01:24:45;;;;;;;111.73;47.37;;;;;;;;;;5066252;28;20288;-76
2022/12/04 01:27:11;;;;;;;105.10;46.10;;;;;;;;;;5066371;28;20208;-76
2022/12/04 01:29:37;;;;;;;103.43;44.90;;;;;;;;;;5070149;28;20686;-76
2022/12/04 01:32:04;;;;;;;108.20;46.47;;;;;;;;;;5064890;28;20178;-76
2022/12/04 01:34:30;;;;;;;108.30;46.77;;;;;;;;;;5067967;28;20234;-75
2022/12/04 01:36:56;;;;;;;109.37;47.93;;;;;;;;;;5067131;28;20189;-76
2022/12/04 01:39:22;;;;;;;99.37;43.27;;;;;;;;;;5061291;28;20537;-77
2022/12/04 01:41:48;;;;;;;123.23;48.07;;;;;;;;;;5057079;28;20204;-77
2022/12/04 01:44:14;;;;;;;96.57;42.47;;;;;;;;;;5060059;28;20235;-76
2022/12/04 01:46:41;;;;;;;117.43;48.77;;;;;;;;;;5066959;28;20569;-77
2022/12/04 01:49:09;;;;;;;110.47;47.07;;;;;;;;;;5065836;28;20255;-76
2022/12/04 01:51:40;;;;;;;107.67;45.97;;;;;;;;;;5059553;28;20195;-76
2022/12/04 01:54:15;;;;;;;116.97;45.50;;;;;;;;;;5066709;28;20189;-74
2022/12/04 01:56:44;;;;;;;104.73;44.40;;;;;;;;;;5069720;28;20195;-76
2022/12/04 01:59:12;;;;;;;98.53;42.53;;;;;;;;;;5072070;28;20715;-76
2022/12/04 02:01:42;;;;;;;99.00;41.70;;;;;;;;;;5067472;28;20189;-77
2022/12/04 02:04:08;;;;;;;88.67;41.07;;;;;;;;;;5064749;28;20645;-77
2022/12/04 02:06:34;;;;;;;86.43;39.70;;;;;;;;;;5068862;28;20194;-76
2022/12/04 02:09:00;;;;;;;89.43;38.53;;;;;;;;;;5055929;28;20574;-76
2022/12/04 02:11:30;;;;;;;85.27;40.23;;;;;;;;;;5069031;28;20661;-76
2022/12/04 02:14:04;;;;;;;89.93;39.40;;;;;;;;;;5062823;28;20661;-76
2022/12/04 02:16:35;;;;;;;85.53;40.07;;;;;;;;;;5060455;28;20186;-75
2022/12/04 02:19:04;;;;;;;95.63;40.93;;;;;;;;;;5067769;28;20629;-75
2022/12/04 02:21:34;;;;;;;106.33;41.93;;;;;;;;;;5068220;28;20185;-76
2022/12/04 02:24:16;;;;;;;88.37;39.93;;;;;;;;;;5057338;28;20185;-76
2022/12/04 02:27:01;;;;;;;99.90;42.80;;;;;;;;;;5066552;28;20188;-76
2022/12/04 02:29:46;;;;;;;91.87;41.30;;;;;;;;;;5058308;28;20213;-76
2022/12/04 02:32:18;;;;;;;89.90;40.53;;;;;;;;;;5067427;28;20633;-76
2022/12/04 02:34:44;;;;;;;87.23;38.90;;;;;;;;;;5066690;28;20181;-75
2022/12/04 02:37:13;;;;;;;88.83;40.03;;;;;;;;;;5068210;28;20188;-76
2022/12/04 02:39:42;;;;;;;89.80;39.17;;;;;;;;;;5067064;28;20232;-76
2022/12/04 02:42:16;;;;;;;88.40;38.10;;;;;;;;;;5066611;28;20642;-76
2022/12/04 02:44:46;;;;;;;82.03;37.60;;;;;;;;;;5056816;28;20215;-75
2022/12/04 02:47:14;;;;;;;83.83;38.87;;;;;;;;;;5065187;28;20638;-76
2022/12/04 02:49:43;;;;;;;85.40;37.97;;;;;;;;;;5059478;28;20208;-77
2022/12/04 02:52:11;;;;;;;84.77;38.03;;;;;;;;;;5059578;28;20645;-76
2022/12/04 02:54:40;;;;;;;76.37;35.93;;;;;;;;;;5058473;28;20230;-76
2022/12/04 02:57:08;;;;;;;80.70;38.47;;;;;;;;;;5057116;28;20188;-76
2022/12/04 02:59:38;;;;;;;85.33;37.00;;;;;;;;;;5057354;28;20273;-76
2022/12/04 03:02:10;;;;;;;84.97;38.70;;;;;;;;;;5063640;28;20204;-77
2022/12/04 03:04:38;;;;;;;82.00;38.00;;;;;;;;;;5066492;28;20201;-76
2022/12/04 03:07:08;;;;;;;80.53;35.93;;;;;;;;;;5076117;28;20184;-75
2022/12/04 03:09:42;;;;;;;79.10;36.93;;;;;;;;;;5055174;28;20206;-75
2022/12/04 03:12:16;;;;;;;88.10;38.93;;;;;;;;;;5065160;28;20170;-75
2022/12/04 03:14:45;;;;;;;85.53;37.10;;;;;;;;;;5066660;28;20690;-76
2022/12/04 03:17:15;;;;;;;78.73;36.47;;;;;;;;;;5064049;28;20193;-75
2022/12/04 03:19:44;;;;;;;76.10;36.07;;;;;;;;;;5066128;28;20196;-75
2022/12/04 03:22:12;;;;;;;83.33;37.80;;;;;;;;;;5057980;28;20186;-77
2022/12/04 03:24:40;;;;;;;83.53;38.43;;;;;;;;;;5053990;28;20190;-76
2022/12/04 03:27:23;;;;;;;83.37;37.77;;;;;;;;;;5058279;28;20185;-75
2022/12/04 03:29:52;;;;;;;92.87;37.77;;;;;;;;;;5056622;28;20209;-76
2022/12/04 03:32:18;;;;;;;89.83;40.63;;;;;;;;;;5065968;28;20172;-75
2022/12/04 03:35:09;;;;;;;87.20;39.80;;;;;;;;;;5063844;28;20188;-75
2022/12/04 03:37:39;;;;;;;96.60;42.03;;;;;;;;;;5065289;28;20627;-75
2022/12/04 03:40:14;;;;;;;83.43;39.10;;;;;;;;;;5078455;28;20195;-76
2022/12/04 03:42:44;;;;;;;95.93;40.70;;;;;;;;;;5063035;28;20207;-73
2022/12/04 03:45:14;;;;;;;97.47;41.03;;;;;;;;;;5069070;28;20264;-75
2022/12/04 03:47:50;;;;;;;86.43;40.10;;;;;;;;;;5064085;28;20192;-75
2022/12/04 03:50:27;;;;;;;87.13;38.80;;;;;;;;;;5056697;28;20646;-75
2022/12/04 03:52:53;;;;;;;83.70;37.07;;;;;;;;;;5065655;28;20241;-74
2022/12/04 03:55:28;;;;;;;82.60;38.83;;;;;;;;;;5057594;28;20682;-75
2022/12/04 03:57:57;;;;;;;88.83;38.63;;;;;;;;;;5059457;28;20184;-75
2022/12/04 04:00:23;;;;;;;90.73;39.03;;;;;;;;;;5054950;28;20181;-75
2022/12/04 04:02:58;;;;;;;98.47;42.60;;;;;;;;;;5060553;28;20181;-75
2022/12/04 04:05:26;;;;;;;89.40;41.27;;;;;;;;;;5069642;28;20230;-76
2022/12/04 04:08:24;;;;;;;102.10;42.57;;;;;;;;;;5053817;28;20193;-74
2022/12/04 04:10:46;;;;;;;105.67;41.33;;;;;;;;;;5055809;28;20189;-75
2022/12/04 04:24:35;;;;;;;97.97;43.50;;;;;;;;;;5065355;28;20277;-76
2022/12/04 04:27:01;;;;;;;96.20;43.17;;;;;;;;;;5051250;28;20173;-76
2022/12/04 04:29:27;;;;;;;93.40;40.67;;;;;;;;;;5070891;28;20204;-76
2022/12/04 04:31:59;;;;;;;86.00;39.60;;;;;;;;;;5056944;28;20626;-75
2022/12/04 04:34:34;;;;;;;78.23;38.47;;;;;;;;;;5063688;28;20217;-75
2022/12/04 04:37:00;;;;;;;81.00;38.47;;;;;;;;;;5061550;28;20268;-77
2022/12/04 04:39:46;;;;;;;69.80;36.30;;;;;;;;;;5064376;28;20663;-76
2022/12/04 04:42:12;;;;;;;69.47;35.50;;;;;;;;;;5068971;28;20192;-75
2022/12/04 04:44:44;;;;;;;67.60;33.67;;;;;;;;;;5051391;28;20234;-76
2022/12/04 04:47:11;;;;;;;75.97;36.43;;;;;;;;;;5057737;28;20181;-74
2022/12/04 04:49:39;;;;;;;72.20;35.13;;;;;;;;;;5067610;28;20574;-75
2022/12/04 04:52:05;;;;;;;74.40;36.97;;;;;;;;;;5061844;28;20192;-74
2022/12/04 04:54:33;;;;;;;66.60;34.60;;;;;;;;;;5065166;28;20193;-75
2022/12/04 04:56:59;;;;;;;65.70;35.70;;;;;;;;;;5050942;28;20521;-75
2022/12/04 04:59:26;;;;;;;83.50;38.97;;;;;;;;;;5070774;28;20200;-75
2022/12/04 05:01:52;;;;;;;76.53;37.33;;;;;;;;;;5068100;28;20184;-74
2022/12/04 05:04:18;;;;;;;88.03;40.97;;;;;;;;;;5060352;28;20178;-75
2022/12/04 05:06:44;;;;;;;92.27;41.07;;;;;;;;;;5060096;28;20182;-75
2022/12/04 05:09:10;;;;;;;81.17;39.77;;;;;;;;;;5065137;28;20205;-74
2022/12/04 05:11:36;;;;;;;84.57;41.63;;;;;;;;;;5053790;28;20189;-74
2022/12/04 05:14:04;;;;;;;94.93;41.37;;;;;;;;;;5055639;28;20681;-75
2022/12/04 05:16:31;;;;;;;81.33;39.80;;;;;;;;;;5053697;28;20185;-76
2022/12/04 05:21:42;;;;;;;77.17;38.43;;;;;;;;;;5057656;28;20740;-75
2022/12/04 05:24:08;;;;;;;85.20;39.10;;;;;;;;;;5066687;28;20264;-75
2022/12/04 05:26:34;;;;;;;87.87;40.33;;;;;;;;;;5074067;28;20268;-75
2022/12/04 05:29:00;;;;;;;80.23;39.47;;;;;;;;;;5064649;28;20317;-75
2022/12/04 05:31:26;;;;;;;79.30;38.10;;;;;;;;;;5060220;28;20196;-75
2022/12/04 05:33:52;;;;;;;80.97;39.53;;;;;;;;;;5053424;28;20678;-75
2022/12/04 05:36:18;;;;;;;77.07;37.83;;;;;;;;;;5057429;28;20251;-76
2022/12/04 05:38:44;;;;;;;77.57;37.80;;;;;;;;;;5068484;28;20184;-76
2022/12/04 05:41:10;;;;;;;69.47;36.23;;;;;;;;;;5061037;28;20233;-76
2022/12/04 05:43:37;;;;;;;77.83;38.27;;;;;;;;;;5069289;28;20188;-74
2022/12/04 05:46:06;;;;;;;75.93;36.00;;;;;;;;;;5063784;28;20676;-75
2022/12/04 05:48:34;;;;;;;73.07;36.70;;;;;;;;;;5068239;28;20219;-75
2022/12/04 05:51:00;;;;;;;68.87;35.13;;;;;;;;;;5059724;28;20197;-75
2022/12/04 05:53:26;;;;;;;72.30;35.33;;;;;;;;;;5087255;28;20272;-74
2022/12/04 05:55:59;;;;;;;70.73;37.40;;;;;;;;;;5069172;28;20180;-75
2022/12/04 05:58:25;;;;;;;75.87;35.47;;;;;;;;;;5059634;28;20185;-74
2022/12/04 06:00:51;;;;;;;76.93;37.10;;;;;;;;;;5060241;28;20188;-74
2022/12/04 06:03:17;;;;;;;75.20;37.13;;;;;;;;;;5066534;28;20645;-75
2022/12/04 06:05:43;;;;;;;73.70;35.67;;;;;;;;;;5061384;28;20227;-75
2022/12/04 06:08:10;;;;;;;76.33;36.77;;;;;;;;;;5062750;28;20219;-75
2022/12/04 06:10:36;;;;;;;74.33;35.57;;;;;;;;;;5060436;28;20221;-75
2022/12/04 06:13:02;;;;;;;71.07;34.93;;;;;;;;;;5055902;28;20185;-75
2022/12/04 06:15:28;;;;;;;71.93;35.93;;;;;;;;;;5053288;28;20189;-75
2022/12/04 06:17:54;;;;;;;64.43;35.00;;;;;;;;;;5068060;28;20181;-75
2022/12/04 06:20:20;;;;;;;74.30;36.17;;;;;;;;;;5075610;28;20205;-74
2022/12/04 06:22:46;;;;;;;67.80;34.97;;;;;;;;;;5058012;28;20182;-75
2022/12/04 06:25:12;;;;;;;74.90;36.20;;;;;;;;;;5059126;28;20182;-75
2022/12/04 06:27:38;;;;;;;80.63;36.67;;;;;;;;;;5057506;28;20985;-75
2022/12/04 06:30:04;;;;;;;74.80;36.47;;;;;;;;;;5067077;28;20209;-75
2022/12/04 06:32:30;;;;;;;71.03;35.90;;;;;;;;;;5057249;28;20983;-75
2022/12/04 06:34:56;;;;;;;75.43;37.73;;;;;;;;;;5057824;28;20664;-75
2022/12/04 06:37:23;;;;;;;71.83;35.37;;;;;;;;;;5057742;28;20723;-76
2022/12/04 06:39:49;;;;;;;77.47;35.90;;;;;;;;;;5055238;28;20329;-75
2022/12/04 06:42:15;;;;;;;68.80;35.50;;;;;;;;;;5068972;28;20262;-75
2022/12/04 06:44:41;;;;;;;74.77;34.77;;;;;;;;;;5052597;28;20170;-74
2022/12/04 06:47:07;;;;;;;63.67;33.63;;;;;;;;;;5058127;28;20185;-75
2022/12/04 06:49:35;;;;;;;71.67;35.20;;;;;;;;;;5057571;28;20212;-76
2022/12/04 06:52:01;;;;;;;62.57;34.97;;;;;;;;;;5060592;28;20223;-75
2022/12/04 06:54:27;;;;;;;71.03;35.73;;;;;;;;;;5067771;28;20343;-75
2022/12/04 06:56:53;;;;;;;72.77;35.27;;;;;;;;;;5055684;28;20218;-75
2022/12/04 06:59:18;;;;;;;69.83;34.53;;;;;;;;;;5073432;28;20195;-75
2022/12/04 07:01:44;;;;;;;73.60;36.07;;;;;;;;;;5059147;28;20182;-75
2022/12/04 07:04:10;;;;;;;73.07;34.80;;;;;;;;;;5054859;28;20708;-75
2022/12/04 07:06:38;;;;;;;64.57;33.13;;;;;;;;;;5063264;28;20212;-75
2022/12/04 07:09:09;;;;;;;64.00;34.13;;;;;;;;;;5054569;28;20570;-75
2022/12/04 07:11:35;;;;;;;74.17;35.47;;;;;;;;;;5070182;28;20179;-75
2022/12/04 07:14:02;;;;;;;72.10;36.40;;;;;;;;;;5069751;28;20223;-75
2022/12/04 07:16:28;;;;;;;68.90;33.77;;;;;;;;;;5067891;28;20645;-76
2022/12/04 07:18:55;;;;;;;61.33;33.93;;;;;;;;;;5066424;28;20960;-76
2022/12/04 07:21:22;;;;;;;67.07;35.00;;;;;;;;;;5054159;28;20182;-76
2022/12/04 07:23:50;;;;;;;66.80;34.40;;;;;;;;;;5052775;28;20635;-76
2022/12/04 07:26:16;;;;;;;66.37;34.13;;;;;;;;;;5054705;28;20186;-76
2022/12/04 07:28:44;;;;;;;64.07;32.60;;;;;;;;;;5059606;28;20695;-75
2022/12/04 07:31:12;;;;;;;65.80;34.70;;;;;;;;;;5058303;28;20186;-74
2022/12/04 07:33:38;;;;;;;62.83;32.97;;;;;;;;;;5069525;28;20228;-75
2022/12/04 07:36:06;;;;;;;64.93;34.47;;;;;;;;;;5054469;28;20532;-76
2022/12/04 07:38:36;;;;;;;60.20;33.67;;;;;;;;;;5083290;28;20180;-77
2022/12/04 07:41:03;;;;;;;69.43;35.03;;;;;;;;;;5068112;28;20177;-75
2022/12/04 07:43:30;;;;;;;63.70;34.57;;;;;;;;;;5064194;28;20182;-76
2022/12/04 07:45:56;;;;;;;70.10;35.50;;;;;;;;;;5057818;28;20707;-76
2022/12/04 07:48:23;;;;;;;65.40;32.93;;;;;;;;;;5063090;28;20244;-76
2022/12/04 07:50:49;;;;;;;66.03;34.80;;;;;;;;;;5083919;28;20184;-75
2022/12/04 07:53:15;;;;;;;62.20;33.77;;;;;;;;;;5056525;28;20185;-76
2022/12/04 07:55:41;;;;;;;60.17;34.17;;;;;;;;;;5062088;28;20311;-76
2022/12/04 07:58:07;;;;;;;62.40;33.33;;;;;;;;;;5069064;28;20241;-75
2022/12/04 08:00:33;;;;;;;62.73;34.93;;;;;;;;;;5066085;28;20590;-75
2022/12/04 08:02:59;;;;;;;62.37;33.87;;;;;;;;;;5067515;28;20185;-76
2022/12/04 08:05:26;;;;;;;61.97;35.13;;;;;;;;;;5055664;28;20216;-75
2022/12/04 08:07:52;;;;;;;55.17;33.03;;;;;;;;;;5055459;28;20264;-76
2022/12/04 08:10:18;;;;;;;55.27;33.90;;;;;;;;;;5058772;28;20768;-76
2022/12/04 08:12:44;;;;;;;60.77;33.47;;;;;;;;;;5067928;28;20184;-76
2022/12/04 08:15:10;;;;;;;58.77;33.73;;;;;;;;;;5051768;28;20170;-76
2022/12/04 08:17:36;;;;;;;56.93;33.90;;;;;;;;;;5075621;28;20203;-75
2022/12/04 08:20:02;;;;;;;59.17;34.17;;;;;;;;;;5077948;28;20198;-76
2022/12/04 08:22:28;;;;;;;60.63;35.77;;;;;;;;;;5069350;28;20185;-76
2022/12/04 08:24:54;;;;;;;61.03;33.63;;;;;;;;;;5067021;28;22887;-75
2022/12/04 08:27:20;;;;;;;54.73;32.33;;;;;;;;;;5067986;28;20268;-74
2022/12/04 08:29:46;;;;;;;57.30;33.07;;;;;;;;;;5070588;28;20202;-76
2022/12/04 08:32:12;;;;;;;54.53;32.37;;;;;;;;;;5065183;28;20703;-75
2022/12/04 08:34:38;;;;;;;58.30;33.97;;;;;;;;;;5062258;28;20182;-76
2022/12/04 08:37:04;;;;;;;53.57;32.10;;;;;;;;;;5053261;28;20189;-76
2022/12/04 08:39:30;;;;;;;50.70;31.83;;;;;;;;;;5065295;28;20653;-76
2022/12/04 08:41:56;;;;;;;58.07;33.77;;;;;;;;;;5070843;28;20230;-76
2022/12/04 08:44:22;;;;;;;51.97;32.40;;;;;;;;;;5066160;28;20276;-75
2022/12/04 08:46:48;;;;;;;54.70;33.57;;;;;;;;;;5061884;28;20181;-74
2022/12/04 08:49:14;;;;;;;56.03;33.70;;;;;;;;;;5055776;28;20748;-74
2022/12/04 08:51:40;;;;;;;50.63;32.57;;;;;;;;;;5051966;28;20269;-75
2022/12/04 08:54:07;;;;;;;50.73;31.60;;;;;;;;;;5063890;28;20572;-76
2022/12/04 08:56:34;;;;;;;54.60;33.43;;;;;;;;;;5065691;28;20193;-75
2022/12/04 08:59:00;;;;;;;53.37;32.37;;;;;;;;;;5059180;28;20213;-76
2022/12/04 09:01:26;;;;;;;51.27;32.40;;;;;;;;;;5055170;28;20192;-76
2022/12/04 09:03:52;;;;;;;48.80;31.90;;;;;;;;;;5053096;28;20581;-76
2022/12/04 09:06:18;;;;;;;51.17;31.70;;;;;;;;;;5065174;28;20204;-76
2022/12/04 09:08:44;;;;;;;50.93;31.90;;;;;;;;;;5056443;28;20201;-76
2022/12/04 09:11:15;;;;;;;50.90;30.93;;;;;;;;;;5058592;28;20192;-76
2022/12/04 09:13:41;;;;;;;46.67;31.20;;;;;;;;;;5057396;28;20184;-76
2022/12/04 09:16:09;;;;;;;47.27;31.47;;;;;;;;;;5055871;28;20182;-76
2022/12/04 09:18:35;;;;;;;49.50;31.77;;;;;;;;;;5070436;28;20270;-76
2022/12/04 09:21:03;;;;;;;49.27;31.17;;;;;;;;;;5088500;28;20230;-75
2022/12/04 09:23:29;;;;;;;48.50;30.63;;;;;;;;;;5071356;28;20284;-75
2022/12/04 09:25:55;;;;;;;50.37;32.10;;;;;;;;;;5065142;28;20236;-76
2022/12/04 09:28:21;;;;;;;50.53;30.93;;;;;;;;;;5060670;28;20220;-76
2022/12/04 09:30:57;;;;;;;49.83;30.80;;;;;;;;;;5067352;28;20185;-75
2022/12/04 09:33:23;;;;;;;48.93;31.47;;;;;;;;;;5069168;28;20300;-76
2022/12/04 09:35:49;;;;;;;47.77;31.27;;;;;;;;;;5087041;28;20806;-75
2022/12/04 09:38:15;;;;;;;50.80;30.93;;;;;;;;;;5070042;28;20212;-75
2022/12/04 09:40:50;;;;;;;53.90;33.13;;;;;;;;;;5066154;28;20228;-76
2022/12/04 09:43:16;;;;;;;47.93;32.10;;;;;;;;;;5069806;28;20187;-75
2022/12/04 09:45:48;;;;;;;49.60;31.33;;;;;;;;;;5070104;28;20272;-75
2022/12/04 09:48:15;;;;;;;47.70;31.23;;;;;;;;;;5075792;28;20300;-76
2022/12/04 09:50:43;;;;;;;51.93;32.37;;;;;;;;;;5063335;28;20180;-77
2022/12/04 09:53:20;;;;;;;50.67;31.10;;;;;;;;;;5080790;28;20193;-76
2022/12/04 09:55:49;;;;;;;47.73;30.63;;;;;;;;;;5075044;28;20677;-75
2022/12/04 09:58:18;;;;;;;49.83;31.30;;;;;;;;;;5076507;28;20637;-75
2022/12/04 10:00:46;;;;;;;48.53;31.57;;;;;;;;;;5075113;28;20189;-76
2022/12/04 10:03:17;;;;;;;51.33;33.57;;;;;;;;;;5087050;28;20180;-76
2022/12/04 10:06:02;;;;;;;57.50;33.60;;;;;;;;;;5081477;28;20223;-76
2022/12/04 10:08:30;;;;;;;49.60;33.13;;;;;;;;;;5073659;28;20730;-75
2022/12/04 10:11:00;;;;;;;53.80;34.40;;;;;;;;;;5069537;28;20174;-76
2022/12/04 10:13:58;;;;;;;51.53;32.87;;;;;;;;;;5068365;28;20236;-75
2022/12/04 10:16:47;;;;;;;52.20;34.50;;;;;;;;;;5050014;28;20190;-75
2022/12/04 10:19:33;;;;;;;53.90;35.80;;;;;;;;;;5031979;28;20213;-76
2022/12/04 10:22:12;;;;;;;53.57;34.37;;;;;;;;;;5048547;28;20739;-76
2022/12/04 10:24:38;;;;;;;48.77;33.50;;;;;;;;;;5032196;28;20181;-75
2022/12/04 10:27:10;;;;;;;50.13;33.67;;;;;;;;;;5033759;28;20264;-75
2022/12/04 10:29:38;;;;;;;46.40;32.50;;;;;;;;;;5048657;28;20213;-75
2022/12/04 10:32:25;;;;;;;54.27;35.13;;;;;;;;;;5048863;28;20201;-76
2022/12/04 10:34:53;;;;;;;47.43;30.73;;;;;;;;;;5054541;28;20547;-76
2022/12/04 10:37:19;;;;;;;48.13;32.80;;;;;;;;;;5049640;28;20185;-76
2022/12/04 10:39:45;;;;;;;45.10;32.17;;;;;;;;;;5049040;28;20206;-75
2022/12/04 10:42:24;;;;;;;48.90;33.57;;;;;;;;;;5039611;28;20199;-76
2022/12/04 10:44:50;;;;;;;49.93;32.33;;;;;;;;;;5048175;28;20280;-75
2022/12/04 10:47:16;;;;;;;51.07;33.83;;;;;;;;;;5031153;28;20657;-76
2022/12/04 10:49:42;;;;;;;55.07;35.93;;;;;;;;;;5034231;28;20213;-76
2022/12/04 10:52:12;;;;;;;44.93;31.43;;;;;;;;;;5057897;28;20193;-76
2022/12/04 10:54:43;;;;;;;44.47;30.30;;;;;;;;;;5066511;28;20222;-76
2022/12/04 10:57:15;;;;;;;48.40;31.70;;;;;;;;;;5067483;28;20211;-75
2022/12/04 10:59:54;;;;;;;48.50;32.10;;;;;;;;;;5072218;28;20189;-76
2022/12/04 11:02:21;;;;;;;45.20;31.83;;;;;;;;;;5079183;28;20218;-76
2022/12/04 11:04:55;;;;;;;46.37;32.33;;;;;;;;;;5078950;28;20173;-75
2022/12/04 11:07:23;;;;;;;47.03;31.30;;;;;;;;;;5079621;28;20539;-76
2022/12/04 11:09:56;;;;;;;48.63;31.90;;;;;;;;;;5078049;28;20320;-75
2022/12/04 11:12:22;;;;;;;39.87;28.43;;;;;;;;;;5079895;28;20197;-76
2022/12/04 11:14:59;;;;;;;42.93;29.13;;;;;;;;;;5078752;28;20203;-74
2022/12/04 11:17:25;;;;;;;42.97;29.20;;;;;;;;;;5078621;28;20196;-76
2022/12/04 11:20:01;;;;;;;42.53;29.07;;;;;;;;;;5074401;28;20193;-74
2022/12/04 11:22:27;;;;;;;45.17;29.93;;;;;;;;;;5076429;28;20192;-76
2022/12/04 11:24:55;;;;;;;42.30;28.93;;;;;;;;;;5072666;28;20196;-76
2022/12/04 11:27:23;;;;;;;38.90;27.73;;;;;;;;;;5073681;28;20243;-76
2022/12/04 11:29:49;;;;;;;40.83;28.80;;;;;;;;;;5069078;28;20261;-76
2022/12/04 11:32:33;;;;;;;41.20;28.20;;;;;;;;;;5079849;28;20539;-76
2022/12/04 11:35:06;;;;;;;40.33;26.53;;;;;;;;;;5073300;28;20209;-75
2022/12/04 11:37:32;;;;;;;39.50;27.57;;;;;;;;;;5072713;28;20226;-76
2022/12/04 11:39:59;;;;;;;40.70;26.27;;;;;;;;;;5079028;28;20215;-75
2022/12/04 11:42:27;;;;;;;39.73;26.47;;;;;;;;;;5097779;28;20180;-75
2022/12/04 11:44:57;;;;;;;38.60;25.70;;;;;;;;;;5080538;28;20176;-76
2022/12/04 11:47:25;;;;;;;33.80;23.10;;;;;;;;;;5077399;28;20268;-75
2022/12/04 11:50:04;;;;;;;36.10;24.50;;;;;;;;;;5077317;28;20200;-76
2022/12/04 11:52:54;;;;;;;40.47;24.37;;;;;;;;;;5070628;28;20701;-76
2022/12/04 11:55:46;;;;;;;33.13;22.53;;;;;;;;;;5071788;28;20199;-75
2022/12/04 11:58:43;;;;;;;32.97;21.57;;;;;;;;;;5074784;28;20196;-76
2022/12/04 12:01:15;;;;;;;33.73;23.33;;;;;;;;;;5069850;28;20192;-76
2022/12/04 12:03:46;;;;;;;34.20;22.83;;;;;;;;;;5067813;28;20224;-77
2022/12/04 12:06:23;;;;;;;34.80;22.77;;;;;;;;;;5089039;28;20227;-76
2022/12/04 12:08:57;;;;;;;31.07;22.57;;;;;;;;;;5062519;28;20582;-76
2022/12/04 12:11:35;;;;;;;34.30;22.47;;;;;;;;;;5065904;28;20242;-76
2022/12/04 12:14:13;;;;;;;33.67;22.60;;;;;;;;;;5061082;28;20181;-75
2022/12/04 12:17:01;;;;;;;34.47;23.20;;;;;;;;;;5062757;28;20700;-76
2022/12/04 12:19:32;;;;;;;28.80;20.37;;;;;;;;;;5068913;28;20192;-76
2022/12/04 12:22:10;;;;;;;32.93;22.07;;;;;;;;;;5061253;28;20193;-75
2022/12/04 12:24:46;;;;;;;31.07;21.67;;;;;;;;;;5060212;28;20225;-75
2022/12/04 12:27:27;;;;;;;35.33;23.60;;;;;;;;;;5057991;28;20183;-76
2022/12/04 12:30:02;;;;;;;36.10;24.23;;;;;;;;;;5057161;28;20205;-76
2022/12/04 12:32:49;;;;;;;33.37;23.27;;;;;;;;;;5052460;28;20232;-76
2022/12/04 12:35:28;;;;;;;33.50;24.13;;;;;;;;;;5053807;28;20181;-76
2022/12/04 12:37:59;;;;;;;35.30;24.10;;;;;;;;;;5054496;28;20177;-75
2022/12/04 12:40:34;;;;;;;36.70;25.20;;;;;;;;;;5061113;28;20267;-75
2022/12/04 12:43:03;;;;;;;38.63;25.90;;;;;;;;;;5066257;28;25955;-75
2022/12/04 12:45:29;;;;;;;35.67;24.27;;;;;;;;;;5061688;28;20180;-75
2022/12/04 12:47:59;;;;;;;41.17;26.30;;;;;;;;;;5071356;28;20629;-76
2022/12/04 12:50:54;;;;;;;35.73;24.07;;;;;;;;;;5069490;28;20185;-77
2022/12/04 12:53:22;;;;;;;36.30;24.43;;;;;;;;;;5058631;28;20413;-76
2022/12/04 12:55:53;;;;;;;39.40;24.37;;;;;;;;;;5067762;28;20223;-74
2022/12/04 12:58:28;;;;;;;34.33;24.27;;;;;;;;;;5069202;28;20191;-75
2022/12/04 13:01:07;;;;;;;36.03;26.40;;;;;;;;;;5065702;28;20179;-76
2022/12/04 13:03:45;;;;;;;39.80;26.37;;;;;;;;;;5072819;28;20260;-76
2022/12/04 13:06:14;;;;;;;35.60;25.23;;;;;;;;;;5071055;28;20193;-75
2022/12/04 13:08:52;;;;;;;41.33;28.20;;;;;;;;;;5069870;28;20269;-76
2022/12/04 13:11:20;;;;;;;43.20;28.90;;;;;;;;;;5068106;28;20263;-76
2022/12/04 13:13:54;;;;;;;39.97;28.03;;;;;;;;;;5070749;28;20185;-76
2022/12/04 13:16:22;;;;;;;43.47;29.93;;;;;;;;;;5071872;28;20193;-74
2022/12/04 13:18:54;;;;;;;44.00;27.30;;;;;;;;;;5070301;28;20185;-75
2022/12/04 13:21:23;;;;;;;42.17;29.17;;;;;;;;;;5068192;28;20178;-76
2022/12/04 13:24:20;;;;;;;40.17;27.87;;;;;;;;;;5067766;28;20196;-76
2022/12/04 13:26:49;;;;;;;44.33;29.90;;;;;;;;;;5069774;28;20660;-76
2022/12/04 13:29:21;;;;;;;52.50;33.00;;;;;;;;;;5064897;28;20205;-76
2022/12/04 13:32:04;;;;;;;43.43;30.67;;;;;;;;;;5061274;28;20188;-75
2022/12/04 13:34:30;;;;;;;40.30;29.17;;;;;;;;;;5066389;28;20228;-75
2022/12/04 13:37:15;;;;;;;47.53;33.40;;;;;;;;;;5070919;28;20210;-75
2022/12/04 13:39:41;;;;;;;48.00;31.50;;;;;;;;;;5072138;28;20256;-74
2022/12/04 13:42:18;;;;;;;48.27;33.03;;;;;;;;;;5070483;28;20783;-75
2022/12/04 13:44:52;;;;;;;39.70;29.80;;;;;;;;;;5064177;28;20650;-73
2022/12/04 13:47:25;;;;;;;37.80;27.93;;;;;;;;;;5055845;28;20173;-75
2022/12/04 13:49:51;;;;;;;42.60;28.53;;;;;;;;;;5068010;28;20221;-75
2022/12/04 13:52:22;;;;;;;44.60;31.27;;;;;;;;;;5070274;28;20184;-76
2022/12/04 13:54:58;;;;;;;36.90;28.23;;;;;;;;;;5071259;28;20257;-75
2022/12/04 13:57:24;;;;;;;40.07;28.57;;;;;;;;;;5065283;28;20626;-74
2022/12/04 14:00:00;;;;;;;38.53;28.57;;;;;;;;;;5062611;28;20189;-76
2022/12/04 14:02:28;;;;;;;39.30;29.10;;;;;;;;;;5061684;28;20189;-76
2022/12/04 14:04:59;;;;;;;36.63;29.10;;;;;;;;;;5066412;28;20189;-75
2022/12/04 14:07:28;;;;;;;39.60;29.00;;;;;;;;;;5069720;28;20660;-75
2022/12/04 14:09:55;;;;;;;38.30;28.73;;;;;;;;;;5069694;28;20287;-75
2022/12/04 14:12:29;;;;;;;40.17;30.10;;;;;;;;;;5070582;28;20544;-75
2022/12/04 14:15:06;;;;;;;41.87;31.27;;;;;;;;;;5067790;28;20250;-76
2022/12/04 14:17:34;;;;;;;43.80;31.17;;;;;;;;;;5069311;28;20180;-75
2022/12/04 14:20:08;;;;;;;54.80;37.10;;;;;;;;;;5068544;28;20193;-76
2022/12/04 14:22:36;;;;;;;46.03;31.33;;;;;;;;;;5065794;28;20247;-76
2022/12/04 14:25:25;;;;;;;44.57;30.23;;;;;;;;;;5070548;28;20252;-77
2022/12/04 14:27:52;;;;;;;45.53;32.07;;;;;;;;;;5064504;28;20194;-77
2022/12/04 14:30:23;;;;;;;50.50;32.97;;;;;;;;;;5078487;28;20254;-76
2022/12/04 14:32:50;;;;;;;44.67;31.20;;;;;;;;;;5070458;28;20462;-76
2022/12/04 14:35:24;;;;;;;45.77;32.90;;;;;;;;;;5076578;28;20190;-75
2022/12/04 14:37:52;;;;;;;48.20;32.70;;;;;;;;;;5076769;28;20189;-76
2022/12/04 14:40:29;;;;;;;54.30;34.70;;;;;;;;;;5079797;28;20195;-76
2022/12/04 14:42:55;;;;;;;54.70;37.03;;;;;;;;;;5081450;28;20183;-75
2022/12/04 14:45:21;;;;;;;48.57;32.77;;;;;;;;;;5077670;28;20750;-75